Time;durP1;ratioP1;P1;durP2;ratioP2;P2;SDS_P1;SDS_P2;PMS_P1;PMS_P2;Temp;Humidity;BMP_temperature;BMP_pressure;BME280_temperature;BME280_humidity;BME280_pressure;Samples;Min_cycle;Max_cycle;Signal;HPM_P1;HPM_P2
2022/04/09 00:00:07;;;;;;;3.38;1.30;;;4.20;85.60;;;;;;6251402;22;20019;-46
2022/04/09 00:02:34;;;;;;;6.65;1.67;;;4.20;85.30;;;;;;6277961;22;20025;-47
2022/04/09 00:05:02;;;;;;;3.28;1.15;;;4.20;84.90;;;;;;6251137;22;20405;-46
2022/04/09 00:07:28;;;;;;;4.45;0.93;;;4.10;84.60;;;;;;6277569;22;20543;-46
2022/04/09 00:09:55;;;;;;;3.42;0.98;;;4.00;84.40;;;;;;6250890;22;20010;-45
2022/04/09 00:12:26;;;;;;;2.55;0.75;;;4.00;84.30;;;;;;6278020;22;20412;-46
2022/04/09 00:14:52;;;;;;;4.95;0.80;;;3.90;84.10;;;;;;6251202;22;20280;-47
2022/04/09 00:17:19;;;;;;;5.38;1.00;;;3.90;84.20;;;;;;6225782;22;20012;-46
2022/04/09 00:19:46;;;;;;;3.45;0.95;;;3.90;84.20;;;;;;6277981;22;20031;-45
2022/04/09 00:22:13;;;;;;;5.32;0.90;;;3.90;84.20;;;;;;6249627;22;20339;-48
2022/04/09 00:24:40;;;;;;;3.55;0.60;;;3.80;84.30;;;;;;6277496;22;20008;-46
2022/04/09 00:27:07;;;;;;;4.75;1.27;;;3.80;84.40;;;;;;6277525;22;19999;-46
2022/04/09 00:29:33;;;;;;;7.38;1.60;;;3.80;84.50;;;;;;6250942;22;20433;-46
2022/04/09 00:32:00;;;;;;;3.58;0.82;;;3.70;84.60;;;;;;6277546;22;19999;-46
2022/04/09 00:34:27;;;;;;;6.10;1.95;;;3.70;84.60;;;;;;6278105;22;20003;-47
2022/04/09 00:36:53;;;;;;;5.63;1.27;;;3.70;84.60;;;;;;6277725;22;20018;-46
2022/04/09 00:39:20;;;;;;;11.48;1.67;;;3.70;84.60;;;;;;6277918;22;20078;-49
2022/04/09 00:41:49;;;;;;;7.13;1.35;;;3.70;84.70;;;;;;6277458;22;20004;-46
2022/04/09 00:44:17;;;;;;;3.70;1.00;;;3.80;84.60;;;;;;6277467;22;20000;-47
2022/04/09 00:46:46;;;;;;;9.25;1.50;;;3.80;84.50;;;;;;6276592;22;20029;-47
2022/04/09 00:49:16;;;;;;;5.47;1.25;;;3.90;84.60;;;;;;6250571;22;20058;-46
2022/04/09 00:51:44;;;;;;;9.43;1.60;;;3.90;84.80;;;;;;6277600;22;20004;-45
2022/04/09 00:54:14;;;;;;;5.50;1.35;;;4.00;84.70;;;;;;6250836;22;20003;-47
2022/04/09 00:56:42;;;;;;;8.60;1.67;;;4.00;84.20;;;;;;6277127;22;20098;-45
2022/04/09 00:59:11;;;;;;;6.57;1.70;;;3.90;84.20;;;;;;6276871;22;20101;-45
2022/04/09 01:01:39;;;;;;;6.40;1.70;;;3.90;83.80;;;;;;6277088;22;20010;-47
2022/04/09 01:04:09;;;;;;;3.80;1.27;;;3.90;84.30;;;;;;6276792;22;20011;-45
2022/04/09 01:06:36;;;;;;;9.57;1.50;;;3.80;84.30;;;;;;6277029;22;20286;-46
2022/04/09 01:09:05;;;;;;;6.88;1.42;;;3.70;84.80;;;;;;6250016;22;20062;-45
2022/04/09 01:11:33;;;;;;;8.73;1.50;;;3.70;84.80;;;;;;6250132;22;20004;-48
2022/04/09 01:14:02;;;;;;;9.93;2.97;;;3.60;85.00;;;;;;6277839;22;20038;-46
2022/04/09 01:16:29;;;;;;;7.00;1.40;;;3.60;85.20;;;;;;6276966;22;20093;-45
2022/04/09 01:19:00;;;;;;;11.35;2.60;;;3.80;85.30;;;;;;6276864;22;20008;-51
2022/04/09 01:21:27;;;;;;;5.40;1.75;;;3.90;85.00;;;;;;6250962;22;20003;-46
2022/04/09 01:23:55;;;;;;;6.53;2.00;;;4.00;84.60;;;;;;6277301;22;20449;-46
2022/04/09 01:26:22;;;;;;;5.90;1.75;;;4.00;84.30;;;;;;6249931;22;20061;-46
2022/04/09 01:28:49;;;;;;;10.02;2.10;;;4.10;83.30;;;;;;6249701;22;20054;-49
2022/04/09 01:31:16;;;;;;;8.27;2.80;;;4.10;82.00;;;;;;6277088;22;20090;-45
2022/04/09 01:33:43;;;;;;;13.07;1.85;;;4.20;80.70;;;;;;6277424;22;20015;-46
2022/04/09 01:36:10;;;;;;;12.68;2.22;;;4.20;80.30;;;;;;6250317;22;20057;-48
2022/04/09 01:38:37;;;;;;;7.82;2.70;;;4.10;79.60;;;;;;6276752;22;20463;-45
2022/04/09 01:41:04;;;;;;;9.35;2.35;;;4.10;79.10;;;;;;6249555;22;20011;-43
2022/04/09 01:43:31;;;;;;;5.32;2.35;;;4.00;78.70;;;;;;6276945;22;20087;-44
2022/04/09 01:45:58;;;;;;;9.70;2.28;;;4.10;78.80;;;;;;6276868;22;20003;-44
2022/04/09 01:48:25;;;;;;;13.68;2.70;;;4.10;79.10;;;;;;6277130;22;19995;-44
2022/04/09 01:50:52;;;;;;;11.63;2.78;;;4.00;79.40;;;;;;6276983;22;20004;-44
2022/04/09 01:53:19;;;;;;;14.88;5.65;;;4.00;79.60;;;;;;6276887;22;20003;-43
2022/04/09 01:55:46;;;;;;;10.15;2.60;;;4.00;79.80;;;;;;6249670;22;20516;-44
2022/04/09 01:58:16;;;;;;;8.90;2.13;;;4.00;80.10;;;;;;6250174;22;20011;-44
2022/04/09 02:00:43;;;;;;;12.52;2.58;;;4.00;80.00;;;;;;6249918;22;20031;-43
2022/04/09 02:03:09;;;;;;;11.00;2.90;;;4.00;80.00;;;;;;6276889;22;20030;-44
2022/04/09 02:05:36;;;;;;;6.78;2.45;;;3.90;80.30;;;;;;6277173;22;19996;-44
2022/04/09 02:08:04;;;;;;;9.48;3.20;;;3.90;80.50;;;;;;6276682;22;20760;-42
2022/04/09 02:10:34;;;;;;;12.15;2.85;;;3.90;80.70;;;;;;6276883;22;20391;-44
2022/04/09 02:13:04;;;;;;;13.52;2.30;;;3.90;81.00;;;;;;6276998;22;20281;-44
2022/04/09 02:15:30;;;;;;;;;;;4.00;80.70;;;;;;6277192;22;20074;-43
2022/04/09 02:17:59;;;;;;;12.52;2.72;;;4.20;81.00;;;;;;6249926;22;19911;-43
2022/04/09 02:20:26;;;;;;;10.43;2.78;;;4.20;81.10;;;;;;6276944;22;20369;-43
2022/04/09 02:22:53;;;;;;;9.15;2.58;;;4.30;81.10;;;;;;6275800;22;20014;-43
2022/04/09 02:25:19;;;;;;;9.57;1.98;;;4.30;81.10;;;;;;6276381;22;20054;-44
2022/04/09 02:27:46;;;;;;;10.10;3.55;;;4.40;81.00;;;;;;6249203;22;20026;-45
2022/04/09 02:30:16;;;;;;;8.00;2.08;;;4.40;81.20;;;;;;6275827;22;20385;-45
2022/04/09 02:33:03;;;;;;;5.10;2.20;;;4.40;81.20;;;;;;6275749;22;20132;-42
2022/04/09 02:35:29;;;;;;;7.53;2.00;;;4.40;81.20;;;;;;6275449;22;20027;-44
2022/04/09 02:37:57;;;;;;;9.13;2.30;;;4.40;81.30;;;;;;6248561;22;20402;-42
2022/04/09 02:40:24;;;;;;;10.57;2.45;;;4.50;81.00;;;;;;6249041;22;20038;-43
2022/04/09 02:42:52;;;;;;;8.32;2.53;;;4.50;81.00;;;;;;6248809;22;20061;-42
2022/04/09 02:45:18;;;;;;;12.15;3.00;;;4.50;80.40;;;;;;6276310;22;20000;-47
2022/04/09 02:47:45;;;;;;;6.53;2.00;;;4.50;80.50;;;;;;6249135;22;20057;-42
2022/04/09 02:50:12;;;;;;;7.43;2.03;;;4.50;80.20;;;;;;6276094;22;19995;-42
2022/04/09 02:52:41;;;;;;;9.80;2.97;;;4.50;80.10;;;;;;6276229;22;20363;-45
2022/04/09 02:55:09;;;;;;;8.82;3.00;;;4.40;80.00;;;;;;6275828;22;20078;-43
2022/04/09 02:57:37;;;;;;;9.40;2.17;;;4.40;79.80;;;;;;6249425;22;20008;-42
2022/04/09 03:00:06;;;;;;;15.63;3.35;;;4.40;79.20;;;;;;6275898;22;20011;-42
2022/04/09 03:02:38;;;;;;;8.43;2.70;;;4.30;78.40;;;;;;6249087;22;20015;-45
2022/04/09 03:05:06;;;;;;;13.80;3.10;;;4.40;77.80;;;;;;6275804;22;20052;-42
2022/04/09 03:07:33;;;;;;;9.85;2.33;;;4.40;76.70;;;;;;6248763;22;20329;-43
2022/04/09 03:10:00;;;;;;;8.90;2.80;;;4.40;77.30;;;;;;6276042;22;19996;-43
2022/04/09 03:12:27;;;;;;;8.93;2.70;;;4.40;77.30;;;;;;6276155;22;20018;-43
2022/04/09 03:14:53;;;;;;;7.95;2.45;;;4.30;77.20;;;;;;6275819;22;20429;-42
2022/04/09 03:17:20;;;;;;;8.40;1.83;;;4.40;77.50;;;;;;6274523;22;20061;-42
2022/04/09 03:19:46;;;;;;;17.20;3.95;;;4.30;77.60;;;;;;6275056;22;20014;-42
2022/04/09 03:22:13;;;;;;;10.90;2.22;;;4.30;77.90;;;;;;6249223;22;20010;-42
2022/04/09 03:24:40;;;;;;;11.20;2.30;;;4.30;78.20;;;;;;6248911;22;20010;-42
2022/04/09 03:27:07;;;;;;;6.03;1.88;;;4.30;78.20;;;;;;6275863;22;20004;-43
2022/04/09 03:29:34;;;;;;;11.77;2.65;;;4.30;78.60;;;;;;6275741;22;20016;-41
2022/04/09 03:32:03;;;;;;;10.60;2.55;;;4.40;78.60;;;;;;6275024;22;20089;-42
2022/04/09 03:34:32;;;;;;;12.57;4.72;;;4.40;79.10;;;;;;6276362;22;20383;-42
2022/04/09 03:36:57;;;;;;;9.90;3.45;;;4.40;79.80;;;;;;6249055;22;20026;-43
2022/04/09 03:39:24;;;;;;;11.88;3.75;;;4.40;80.40;;;;;;6275939;22;20003;-42
2022/04/09 03:41:51;;;;;;;14.10;1.95;;;4.30;81.10;;;;;;6275639;22;20042;-42
2022/04/09 03:44:18;;;;;;;11.52;3.15;;;4.30;81.80;;;;;;6276311;22;20000;-42
2022/04/09 03:46:48;;;;;;;8.05;2.55;;;4.30;82.10;;;;;;6275896;22;20023;-45
2022/04/09 03:49:15;;;;;;;12.15;2.60;;;4.30;82.50;;;;;;6275761;22;20464;-43
2022/04/09 03:51:44;;;;;;;12.75;2.90;;;4.20;82.40;;;;;;6249590;22;20026;-42
2022/04/09 03:54:11;;;;;;;9.90;2.75;;;4.20;82.80;;;;;;6275916;22;20010;-42
2022/04/09 03:56:40;;;;;;;11.25;2.92;;;4.20;82.70;;;;;;6275107;22;20069;-42
2022/04/09 03:59:05;;;;;;;10.50;2.23;;;4.20;82.80;;;;;;6276484;22;20337;-41
2022/04/09 04:01:32;;;;;;;10.98;2.60;;;4.20;83.00;;;;;;6276032;22;20220;-43
2022/04/09 04:03:59;;;;;;;9.32;3.00;;;4.20;82.80;;;;;;6275708;22;20007;-43
2022/04/09 04:06:26;;;;;;;9.30;2.20;;;4.10;82.60;;;;;;6248706;22;20008;-42
2022/04/09 04:08:52;;;;;;;9.20;2.25;;;4.00;82.80;;;;;;6275940;22;20023;-42
2022/04/09 04:11:18;;;;;;;8.35;2.33;;;4.00;83.00;;;;;;6249235;22;20018;-44
2022/04/09 04:13:46;;;;;;;10.60;2.60;;;4.00;83.50;;;;;;6276020;22;20008;-41
2022/04/09 04:16:11;;;;;;;7.18;2.15;;;4.00;83.60;;;;;;6275397;22;20015;-40
2022/04/09 04:18:38;;;;;;;16.88;5.07;;;4.00;83.60;;;;;;6248795;22;20290;-42
2022/04/09 04:21:05;;;;;;;8.75;2.80;;;3.90;83.50;;;;;;6275830;22;20082;-42
2022/04/09 04:23:34;;;;;;;28.67;13.30;;;3.90;83.60;;;;;;6274634;22;20000;-41
2022/04/09 04:26:02;;;;;;;24.95;8.80;;;3.90;83.30;;;;;;6275634;22;20023;-43
2022/04/09 04:28:28;;;;;;;9.98;4.53;;;3.90;83.50;;;;;;6275818;22;19996;-43
2022/04/09 04:30:55;;;;;;;9.43;2.45;;;3.80;83.60;;;;;;6275673;22;20035;-41
2022/04/09 04:33:22;;;;;;;6.00;1.67;;;3.80;83.60;;;;;;6248581;22;19996;-44
2022/04/09 04:35:48;;;;;;;10.38;2.35;;;3.80;83.50;;;;;;6275161;22;20007;-42
2022/04/09 04:38:14;;;;;;;10.48;2.30;;;3.70;83.30;;;;;;6275592;22;20004;-43
2022/04/09 04:40:41;;;;;;;7.70;2.13;;;3.70;83.50;;;;;;6250262;22;20095;-43
2022/04/09 04:43:08;;;;;;;4.85;1.88;;;3.60;83.50;;;;;;6249459;22;20000;-42
2022/04/09 04:45:34;;;;;;;8.68;2.85;;;3.60;83.80;;;;;;6277935;22;20294;-43
2022/04/09 04:48:01;;;;;;;7.13;2.30;;;3.60;84.20;;;;;;6277432;22;20294;-42
2022/04/09 04:50:27;;;;;;;10.98;2.60;;;3.60;84.60;;;;;;6277924;22;20004;-43
2022/04/09 04:52:54;;;;;;;11.15;2.90;;;3.70;84.30;;;;;;6249858;22;20008;-43
2022/04/09 04:55:22;;;;;;;9.80;2.45;;;3.70;84.30;;;;;;6250307;22;20008;-43
2022/04/09 04:57:51;;;;;;;12.57;2.85;;;3.60;84.50;;;;;;6276501;22;19996;-42
2022/04/09 05:00:21;;;;;;;10.30;2.75;;;3.60;84.60;;;;;;6276671;22;20039;-42
2022/04/09 05:02:48;;;;;;;11.63;1.92;;;3.70;84.90;;;;;;6249729;22;20102;-43
2022/04/09 05:05:15;;;;;;;8.88;2.00;;;3.60;84.50;;;;;;6277370;22;20433;-42
2022/04/09 05:07:44;;;;;;;4.35;1.20;;;3.60;84.10;;;;;;6250313;22;20656;-42
2022/04/09 05:10:15;;;;;;;3.35;1.05;;;3.70;83.80;;;;;;6251021;22;20038;-42
2022/04/09 05:12:43;;;;;;;5.22;1.05;;;3.70;83.90;;;;;;6250198;22;20403;-43
2022/04/09 05:15:15;;;;;;;4.20;1.27;;;3.70;83.50;;;;;;6276996;22;20010;-45
2022/04/09 05:17:43;;;;;;;8.88;1.40;;;3.70;83.80;;;;;;6276785;22;19999;-42
2022/04/09 05:20:15;;;;;;;4.20;1.63;;;3.90;83.80;;;;;;6277893;22;20003;-43
2022/04/09 05:22:46;;;;;;;11.18;1.98;;;4.00;83.60;;;;;;6276739;22;20046;-43
2022/04/09 05:25:16;;;;;;;13.30;2.80;;;4.10;83.70;;;;;;6277181;22;20510;-42
2022/04/09 05:27:45;;;;;;;11.52;2.63;;;4.20;83.80;;;;;;6276997;22;20057;-44
2022/04/09 05:30:12;;;;;;;10.43;2.00;;;4.20;84.30;;;;;;6276529;22;20319;-42
2022/04/09 05:32:39;;;;;;;12.32;1.80;;;4.20;84.50;;;;;;6249476;22;20038;-44
2022/04/09 05:35:07;;;;;;;10.32;2.25;;;4.20;84.80;;;;;;6276617;22;20008;-46
2022/04/09 05:37:33;;;;;;;5.13;1.83;;;4.30;84.90;;;;;;6249610;22;20011;-42
2022/04/09 05:40:05;;;;;;;14.77;2.40;;;4.30;85.10;;;;;;6276521;22;20008;-44
2022/04/09 05:42:32;;;;;;;8.57;1.90;;;4.30;85.00;;;;;;6275893;22;20007;-45
2022/04/09 05:45:02;;;;;;;10.05;1.50;;;4.20;84.90;;;;;;6250238;22;20643;-44
2022/04/09 05:47:30;;;;;;;11.27;1.88;;;4.30;85.00;;;;;;6276947;22;19996;-43
2022/04/09 05:50:02;;;;;;;13.97;3.07;;;4.30;85.10;;;;;;6277494;22;20293;-44
2022/04/09 05:52:28;;;;;;;15.65;2.53;;;4.30;85.10;;;;;;6276864;22;20042;-43
2022/04/09 05:54:55;;;;;;;9.00;2.05;;;4.40;85.10;;;;;;6277105;22;20011;-42
2022/04/09 05:57:22;;;;;;;10.20;2.00;;;4.40;85.30;;;;;;6276695;22;20060;-43
2022/04/09 05:59:48;;;;;;;8.48;2.05;;;4.50;85.10;;;;;;6249604;22;20012;-43
2022/04/09 06:02:20;;;;;;;7.68;1.58;;;4.70;84.90;;;;;;6249743;22;20322;-41
2022/04/09 06:04:47;;;;;;;7.05;1.52;;;4.80;84.70;;;;;;6249787;22;20008;-42
2022/04/09 06:07:13;;;;;;;5.95;1.48;;;4.90;84.40;;;;;;6276664;22;20042;-41
2022/04/09 06:09:43;;;;;;;4.38;1.42;;;5.10;83.70;;;;;;6249841;22;20004;-42
2022/04/09 06:12:12;;;;;;;4.93;1.60;;;5.20;83.40;;;;;;6249918;22;20064;-42
2022/04/09 06:14:39;;;;;;;6.90;1.52;;;5.40;83.10;;;;;;6276424;22;20287;-42
2022/04/09 06:17:08;;;;;;;9.95;1.95;;;5.50;83.20;;;;;;6276531;22;20340;-42
2022/04/09 06:19:35;;;;;;;8.63;1.53;;;5.70;82.80;;;;;;6250286;22;20320;-43
2022/04/09 06:22:02;;;;;;;16.40;1.83;;;5.80;82.70;;;;;;6249931;22;20031;-44
2022/04/09 06:24:29;;;;;;;4.10;1.23;;;5.90;82.20;;;;;;6249117;22;19999;-41
2022/04/09 06:26:55;;;;;;;6.15;1.90;;;5.90;81.70;;;;;;6249709;22;20058;-41
2022/04/09 06:29:21;;;;;;;8.40;2.20;;;5.90;81.30;;;;;;6276680;22;20016;-41
2022/04/09 06:31:50;;;;;;;8.00;1.67;;;6.10;81.40;;;;;;6276561;22;20322;-41
2022/04/09 06:34:18;;;;;;;7.25;1.38;;;6.30;81.50;;;;;;6249286;22;20011;-42
2022/04/09 06:36:44;;;;;;;6.03;1.42;;;6.50;81.10;;;;;;6276648;22;20007;-42
2022/04/09 06:39:10;;;;;;;5.85;1.65;;;6.60;80.90;;;;;;6276031;22;20008;-41
2022/04/09 06:41:37;;;;;;;6.20;1.48;;;6.70;80.90;;;;;;6276287;22;20008;-42
2022/04/09 06:44:06;;;;;;;7.38;1.85;;;6.60;80.70;;;;;;6276694;22;20082;-43
2022/04/09 06:46:33;;;;;;;7.43;3.05;;;6.40;80.90;;;;;;6249765;22;20008;-43
2022/04/09 06:48:59;;;;;;;8.70;1.65;;;6.30;81.20;;;;;;6249394;22;20397;-40
2022/04/09 06:51:26;;;;;;;6.35;1.23;;;6.10;81.50;;;;;;6276129;22;20000;-41
2022/04/09 06:53:52;;;;;;;7.22;1.48;;;6.10;82.30;;;;;;6276015;22;20038;-42
2022/04/09 06:56:21;;;;;;;13.57;2.65;;;6.10;82.30;;;;;;6276307;22;20012;-42
2022/04/09 06:58:48;;;;;;;9.10;1.67;;;6.30;82.50;;;;;;6276073;22;20052;-42
2022/04/09 07:01:15;;;;;;;8.13;1.27;;;6.50;82.50;;;;;;6276057;22;20010;-41
2022/04/09 07:03:42;;;;;;;7.82;2.25;;;6.70;82.10;;;;;;6275480;22;20010;-41
2022/04/09 07:06:10;;;;;;;7.32;2.28;;;6.90;81.40;;;;;;6276205;22;20014;-41
2022/04/09 07:08:40;;;;;;;20.02;5.00;;;7.00;81.20;;;;;;6276294;22;19999;-41
2022/04/09 07:11:05;;;;;;;10.20;2.03;;;7.20;80.00;;;;;;6248919;22;20057;-42
2022/04/09 07:13:34;;;;;;;8.27;2.08;;;7.30;77.70;;;;;;6276750;22;20007;-43
2022/04/09 07:16:01;;;;;;;4.53;1.02;;;7.30;77.80;;;;;;6276021;22;20007;-44
2022/04/09 07:18:28;;;;;;;6.10;1.10;;;6.50;78.00;;;;;;6276140;22;20026;-49
2022/04/09 07:20:55;;;;;;;6.53;1.40;;;5.60;81.00;;;;;;6275517;22;20394;-58
2022/04/09 07:23:21;;;;;;;7.28;1.65;;;5.00;83.30;;;;;;6275932;22;20393;-55
2022/04/09 07:25:49;;;;;;;6.40;1.15;;;4.70;84.60;;;;;;6248922;22;20057;-60
2022/04/09 07:28:16;;;;;;;3.10;0.93;;;4.70;85.60;;;;;;6275165;22;20014;-55
2022/04/09 07:30:44;;;;;;;7.10;1.33;;;4.60;86.10;;;;;;6275255;22;20077;-55
2022/04/09 07:33:13;;;;;;;3.28;0.90;;;4.70;86.20;;;;;;6275531;22;20000;-52
2022/04/09 07:35:45;;;;;;;11.10;1.73;;;4.80;86.60;;;;;;6275387;22;20010;-50
2022/04/09 07:38:13;;;;;;;8.65;1.63;;;5.00;86.50;;;;;;6248627;22;20395;-49
2022/04/09 07:40:40;;;;;;;9.70;2.47;;;5.40;86.00;;;;;;6275325;22;20314;-50
2022/04/09 07:43:06;;;;;;;9.68;2.83;;;5.60;85.70;;;;;;6275547;22;20000;-48
2022/04/09 07:45:33;;;;;;;13.18;4.30;;;5.80;85.30;;;;;;6248667;22;20015;-46
2022/04/09 07:48:01;;;;;;;10.18;2.40;;;5.90;84.80;;;;;;6248116;22;20820;-47
2022/04/09 07:50:28;;;;;;;12.23;2.38;;;6.10;84.60;;;;;;6275500;22;20283;-45
2022/04/09 07:52:56;;;;;;;11.07;2.78;;;6.50;84.00;;;;;;6274873;22;19999;-45
2022/04/09 07:55:23;;;;;;;10.70;2.17;;;7.10;82.80;;;;;;6274976;22;20030;-44
2022/04/09 07:57:51;;;;;;;11.50;1.88;;;7.60;80.10;;;;;;6248857;22;20015;-43
2022/04/09 08:00:18;;;;;;;11.25;1.83;;;7.90;79.50;;;;;;6275236;22;20020;-42
2022/04/09 08:02:45;;;;;;;8.00;1.95;;;8.40;79.20;;;;;;6275312;22;20007;-44
2022/04/09 08:05:11;;;;;;;7.25;1.60;;;8.80;78.60;;;;;;6275488;22;20000;-45
2022/04/09 08:07:41;;;;;;;6.78;1.70;;;8.20;75.60;;;;;;6275347;22;20086;-43
2022/04/09 08:10:11;;;;;;;10.48;2.13;;;7.50;75.90;;;;;;6275083;22;20417;-43
2022/04/09 08:12:39;;;;;;;7.10;1.65;;;7.00;76.10;;;;;;6248108;22;20008;-42
2022/04/09 08:15:06;;;;;;;10.95;2.30;;;6.70;77.10;;;;;;6276963;22;20004;-44
2022/04/09 08:17:32;;;;;;;12.07;2.42;;;6.70;78.00;;;;;;6277777;22;20007;-45
2022/04/09 08:20:00;;;;;;;12.38;1.90;;;7.40;79.00;;;;;;6277296;22;20069;-46
2022/04/09 08:22:28;;;;;;;11.27;2.25;;;7.90;77.90;;;;;;6277077;22;20004;-44
2022/04/09 08:24:56;;;;;;;16.15;2.88;;;8.60;78.90;;;;;;6225704;22;20039;-44
2022/04/09 08:27:23;;;;;;;8.80;2.45;;;8.40;76.80;;;;;;6277721;22;20008;-42
2022/04/09 08:29:50;;;;;;;6.88;1.73;;;7.80;76.90;;;;;;6250407;22;20019;-43
2022/04/09 08:32:17;;;;;;;5.13;1.58;;;7.40;77.40;;;;;;6250953;22;20007;-42
2022/04/09 08:34:44;;;;;;;9.90;1.67;;;7.00;77.10;;;;;;6277218;22;20390;-43
2022/04/09 08:37:10;;;;;;;5.72;1.50;;;6.90;77.80;;;;;;6277328;22;20014;-42
2022/04/09 08:39:37;;;;;;;5.38;1.17;;;6.90;78.50;;;;;;6249482;22;20008;-41
2022/04/09 08:42:04;;;;;;;7.25;2.03;;;7.40;77.10;;;;;;6248630;22;20314;-42
2022/04/09 08:44:31;;;;;;;7.97;1.65;;;7.90;76.40;;;;;;6277019;22;20323;-42
2022/04/09 08:46:58;;;;;;;9.57;1.95;;;8.20;74.40;;;;;;6276225;22;19996;-44
2022/04/09 08:49:28;;;;;;;5.95;1.48;;;8.30;74.20;;;;;;6276631;22;20685;-42
2022/04/09 08:51:55;;;;;;;;;;;8.50;74.30;;;;;;6250864;22;20012;-41
2022/04/09 08:54:22;;;;;;;17.05;2.40;;;8.90;74.70;;;;;;6277221;22;19910;-42
2022/04/09 08:56:50;;;;;;;13.98;2.15;;;9.20;74.10;;;;;;6275570;22;20078;-44
2022/04/09 08:59:17;;;;;;;11.32;2.92;;;9.60;73.50;;;;;;6276257;22;20000;-43
2022/04/09 09:01:44;;;;;;;15.52;3.08;;;9.70;72.00;;;;;;6250677;22;20073;-43
2022/04/09 09:04:13;;;;;;;11.18;2.30;;;9.20;72.30;;;;;;6249687;22;20288;-43
2022/04/09 09:06:40;;;;;;;11.25;2.10;;;8.50;72.50;;;;;;6276936;22;20295;-44
2022/04/09 09:09:09;;;;;;;9.80;3.05;;;8.20;73.30;;;;;;6277174;22;19996;-41
2022/04/09 09:11:48;;;;;;;10.13;2.00;;;8.20;74.90;;;;;;6277062;22;20378;-44
2022/04/09 09:14:33;;;;;;;17.15;2.55;;;8.60;74.60;;;;;;6249595;22;20046;-45
2022/04/09 09:17:04;;;;;;;5.53;1.50;;;8.70;71.50;;;;;;6277168;22;20007;-42
2022/04/09 09:19:51;;;;;;;4.88;0.88;;;8.00;71.50;;;;;;6276564;22;20037;-44
2022/04/09 09:22:20;;;;;;;2.67;0.95;;;7.40;72.90;;;;;;6249908;22;20018;-44
2022/04/09 09:25:12;;;;;;;4.68;0.95;;;7.10;72.90;;;;;;6276833;22;20075;-42
2022/04/09 09:27:43;;;;;;;7.43;2.05;;;7.00;74.50;;;;;;6262635;22;20006;-41
2022/04/09 09:30:14;;;;;;;8.23;1.95;;;7.00;75.70;;;;;;6276502;22;20015;-48
2022/04/09 09:32:41;;;;;;;13.20;2.35;;;7.10;76.30;;;;;;6277149;22;20000;-44
2022/04/09 09:35:09;;;;;;;10.65;2.00;;;7.10;76.80;;;;;;6277441;22;20382;-42
2022/04/09 09:37:37;;;;;;;11.30;2.30;;;7.80;77.10;;;;;;6277529;22;20075;-42
2022/04/09 09:40:04;;;;;;;10.93;2.83;;;8.70;76.40;;;;;;6276590;22;20310;-41
2022/04/09 09:42:33;;;;;;;11.90;3.10;;;9.50;75.40;;;;;;6276828;22;20079;-42
2022/04/09 09:44:59;;;;;;;9.77;2.42;;;10.00;71.30;;;;;;6250739;22;20007;-41
2022/04/09 09:47:26;;;;;;;9.35;3.00;;;9.60;70.00;;;;;;6277000;22;19996;-41
2022/04/09 09:49:53;;;;;;;6.05;1.38;;;9.10;73.70;;;;;;6276166;22;19999;-41
2022/04/09 09:52:30;;;;;;;8.00;1.90;;;8.20;75.80;;;;;;6277233;22;20476;-43
2022/04/09 09:55:20;;;;;;;8.23;2.35;;;7.50;77.90;;;;;;6276937;22;20023;-42
2022/04/09 09:57:52;;;;;;;4.68;1.42;;;8.00;79.80;;;;;;6276989;22;20014;-43
2022/04/09 10:00:18;;;;;;;6.38;1.40;;;8.20;76.60;;;;;;6276004;22;20497;-48
2022/04/09 10:02:45;;;;;;;2.80;0.75;;;7.40;75.70;;;;;;6276683;22;20061;-47
2022/04/09 10:05:13;;;;;;;4.70;1.48;;;6.80;76.90;;;;;;6277252;22;20079;-46
2022/04/09 10:07:42;;;;;;;5.32;0.82;;;6.50;78.70;;;;;;6276492;22;20054;-45
2022/04/09 10:10:08;;;;;;;3.97;1.08;;;7.00;79.80;;;;;;6276393;22;20302;-46
2022/04/09 10:12:42;;;;;;;6.80;1.13;;;7.60;79.00;;;;;;6249869;22;20026;-43
2022/04/09 10:15:10;;;;;;;9.52;1.63;;;8.00;75.50;;;;;;6276277;22;20035;-42
2022/04/09 10:17:38;;;;;;;7.68;1.20;;;8.60;76.70;;;;;;6249709;22;20007;-45
2022/04/09 10:20:09;;;;;;;7.55;1.48;;;9.00;74.90;;;;;;6249549;22;20008;-42
2022/04/09 10:22:45;;;;;;;8.48;2.55;;;8.90;73.60;;;;;;6250022;22;20031;-42
2022/04/09 10:25:14;;;;;;;7.82;2.20;;;8.80;73.00;;;;;;6276383;22;20011;-42
2022/04/09 10:27:44;;;;;;;6.53;2.75;;;8.60;72.10;;;;;;6276896;22;20004;-42
2022/04/09 10:30:38;;;;;;;;;;;8.50;71.80;;;;;;6276747;22;20015;-42
2022/04/09 10:33:23;;;;;;;7.68;2.10;;;8.60;73.30;;;;;;6271842;22;19974;-44
2022/04/09 10:35:52;;;;;;;10.25;1.92;;;9.20;71.60;;;;;;6250828;22;20021;-42
2022/04/09 10:38:19;;;;;;;11.35;2.58;;;9.50;70.00;;;;;;6276403;22;20074;-42
2022/04/09 10:40:57;;;;;;;7.72;1.73;;;9.90;71.60;;;;;;6276644;22;20011;-44
2022/04/09 10:43:25;;;;;;;10.32;2.55;;;9.70;67.60;;;;;;6249580;22;20019;-43
2022/04/09 10:46:15;;;;;;;12.15;2.42;;;9.40;66.60;;;;;;6276073;22;19999;-42
2022/04/09 10:48:44;;;;;;;10.00;2.25;;;9.20;65.90;;;;;;6276023;22;20030;-42
2022/04/09 10:51:15;;;;;;;10.77;3.13;;;9.00;67.50;;;;;;6276282;22;20074;-42
2022/04/09 10:53:49;;;;;;;8.80;2.55;;;9.10;67.70;;;;;;6249406;22;20003;-42
2022/04/09 10:56:27;;;;;;;18.77;4.00;;;9.40;67.30;;;;;;6249341;22;20000;-42
2022/04/09 10:59:16;;;;;;;13.60;2.58;;;9.60;63.30;;;;;;6251318;22;20275;-41
2022/04/09 11:01:49;;;;;;;12.77;2.72;;;9.80;66.50;;;;;;6276534;22;20016;-44
2022/04/09 11:04:36;;;;;;;7.28;2.22;;;9.90;62.60;;;;;;6249470;22;20057;-41
2022/04/09 11:07:10;;;;;;;11.85;3.13;;;9.80;65.00;;;;;;6275914;22;19995;-42
2022/04/09 11:09:58;;;;;;;12.63;2.85;;;9.80;65.40;;;;;;6275738;22;20009;-43
2022/04/09 11:12:46;;;;;;;7.95;2.00;;;10.00;65.80;;;;;;6276689;22;20011;-43
2022/04/09 11:15:16;;;;;;;11.25;2.00;;;10.50;66.40;;;;;;6249505;22;20394;-46
2022/04/09 11:17:43;;;;;;;;;;;10.90;62.50;;;;;;6250004;22;20014;-41
2022/04/09 11:20:16;;;;;;;13.07;3.38;;;10.60;63.70;;;;;;6275779;22;19899;-42
2022/04/09 11:22:55;;;;;;;9.45;2.00;;;10.40;64.40;;;;;;6276084;22;20004;-42
2022/04/09 11:25:41;;;;;;;16.50;3.70;;;10.40;62.70;;;;;;6276661;22;20687;-42
2022/04/09 11:28:13;;;;;;;17.52;3.75;;;10.10;62.20;;;;;;6276739;22;20000;-45
2022/04/09 11:31:00;;;;;;;14.20;2.72;;;9.60;65.10;;;;;;6275778;22;20012;-42
2022/04/09 11:33:28;;;;;;;18.20;2.72;;;9.90;64.80;;;;;;6249426;22;20000;-43
2022/04/09 11:35:59;;;;;;;13.25;2.85;;;10.10;65.50;;;;;;6275945;22;20038;-44
2022/04/09 11:38:30;;;;;;;17.10;3.85;;;9.80;60.80;;;;;;6249022;22;20000;-44
2022/04/09 11:40:56;;;;;;;13.07;2.42;;;9.60;63.90;;;;;;6275665;22;19999;-41
2022/04/09 11:43:24;;;;;;;18.40;2.97;;;9.40;62.40;;;;;;6276778;22;20015;-41
2022/04/09 11:45:51;;;;;;;10.48;2.72;;;9.00;64.40;;;;;;6249704;22;20006;-42
2022/04/09 11:48:20;;;;;;;13.02;2.40;;;9.40;66.20;;;;;;6277188;22;20291;-43
2022/04/09 11:50:49;;;;;;;15.95;2.78;;;9.40;64.10;;;;;;6277524;22;20014;-42
2022/04/09 11:53:34;;;;;;;10.50;2.67;;;9.20;63.90;;;;;;6277978;22;20004;-43
2022/04/09 11:56:03;;;;;;;14.90;3.03;;;9.40;61.20;;;;;;6250209;22;20280;-46
2022/04/09 11:58:31;;;;;;;14.30;4.15;;;9.50;64.70;;;;;;6278135;22;20015;-43
2022/04/09 12:00:59;;;;;;;13.32;3.50;;;9.50;62.40;;;;;;6276620;22;20011;-42
2022/04/09 12:03:27;;;;;;;14.32;2.92;;;9.50;62.90;;;;;;6277011;22;20004;-42
2022/04/09 12:05:54;;;;;;;13.10;2.97;;;9.40;61.40;;;;;;6250641;22;20015;-42
2022/04/09 12:08:23;;;;;;;13.20;3.45;;;9.70;61.80;;;;;;6277356;22;20004;-42
2022/04/09 12:11:09;;;;;;;12.68;3.90;;;9.90;62.80;;;;;;6250242;22;20035;-45
2022/04/09 12:13:42;;;;;;;11.63;2.67;;;9.80;60.20;;;;;;6224892;22;20004;-44
2022/04/09 12:16:10;;;;;;;9.95;3.25;;;9.50;58.80;;;;;;6277744;22;20004;-43
2022/04/09 12:18:38;;;;;;;12.95;5.25;;;9.30;58.90;;;;;;6277404;22;20003;-45
2022/04/09 12:21:24;;;;;;;16.95;4.95;;;9.10;58.60;;;;;;6277006;22;20007;-42
2022/04/09 12:24:13;;;;;;;13.68;2.95;;;9.20;61.00;;;;;;6274991;22;20137;-46
2022/04/09 12:26:58;;;;;;;9.95;2.72;;;9.40;61.70;;;;;;6276075;22;20003;-45
2022/04/09 12:29:24;;;;;;;18.67;3.55;;;9.70;59.70;;;;;;6276009;22;20034;-44
2022/04/09 12:32:13;;;;;;;17.73;3.35;;;9.80;59.90;;;;;;6275543;22;19999;-43
2022/04/09 12:35:15;;;;;;;10.98;3.13;;;9.90;60.40;;;;;;6250169;22;20011;-42
2022/04/09 12:37:50;;;;;;;16.85;4.15;;;9.60;62.00;;;;;;6276282;22;20004;-42
2022/04/09 12:40:23;;;;;;;15.95;3.90;;;9.70;61.90;;;;;;6276328;22;20014;-42
2022/04/09 12:42:50;;;;;;;16.58;2.72;;;10.00;62.70;;;;;;6276275;22;20031;-42
2022/04/09 12:45:23;;;;;;;13.35;3.83;;;10.00;60.40;;;;;;6277361;22;20004;-44
2022/04/09 12:48:01;;;;;;;11.20;3.30;;;9.80;61.40;;;;;;6276171;22;20004;-43
2022/04/09 12:50:47;;;;;;;17.00;4.22;;;9.80;63.00;;;;;;6200035;22;20008;-43
2022/04/09 12:53:14;;;;;;;17.70;5.28;;;9.40;62.30;;;;;;6276133;22;20015;-45
2022/04/09 12:55:49;;;;;;;14.45;3.40;;;9.20;64.00;;;;;;6276273;22;20349;-48
2022/04/09 12:58:16;;;;;;;10.43;2.20;;;9.40;63.60;;;;;;6251865;22;20007;-43
2022/04/09 13:00:45;;;;;;;12.90;2.88;;;9.40;63.10;;;;;;6277066;22;20007;-42
2022/04/09 13:03:13;;;;;;;13.43;2.83;;;9.40;60.60;;;;;;6277594;22;20074;-43